Current Conditions
Data
Offline




Pressure
29.95 (inHG) - 1014.22 (mb)
Visibility

9.9 (mimiles) - 16.0 (km)
   Temperature
41  °F
5°C
39  °F
Dewpoint
93  %
 Humidity
   Wind Speed
3  mph
3  kts
5  km/h
1.3  m/s
   Wind Direction
 190°
Due South
   Airport Data
KBUU
Location Burlington Municipal Airport 6 mi (9.65 km)
Metar :KBUU 070915Z AUTO 19003KT 10SM 05/04 A2995 RMK AO2 T00470038 PWINO
Fri 7th May 03:15 am
   Raw Metar Info
Raw METAR is the most common format in the world for the transmission of observational weather data. It is highly standardized through the International Civil Aviation Organization (ICAO), which allows it to be understood throughout most of the world.
   API Info
Data Provided by
https://www.checkwx.com/weather/KBUU
   © Info
CSS/SVG/PHP scripts were developed by weather34.com for use in the weather34 template © 2015-2021

Guide Info provided by Metar-Wikipedia